Time;durP1;ratioP1;P1;durP2;ratioP2;P2;SDS_P1;SDS_P2;PMS_P1;PMS_P2;Temp;Humidity;BMP_temperature;BMP_pressure;BME280_temperature;BME280_humidity;BME280_pressure;Samples;Min_cycle;Max_cycle;Signal;HPM_P1;HPM_P2
2022/03/23 00:02:13;;;;;;;39.65;10.95;;;13.90;76.80;;;;;;5024356;28;20064;-72
2022/03/23 00:04:39;;;;;;;43.92;11.68;;;13.90;76.80;;;;;;5024081;28;20120;-71
2022/03/23 00:07:05;;;;;;;44.15;10.68;;;13.90;76.80;;;;;;5024437;28;20379;-72
2022/03/23 00:09:30;;;;;;;35.05;11.00;;;13.90;76.90;;;;;;5025745;28;20053;-72
2022/03/23 00:11:56;;;;;;;37.22;10.52;;;13.90;76.80;;;;;;5025890;28;20584;-71
2022/03/23 00:14:21;;;;;;;40.42;10.98;;;13.90;77.00;;;;;;5025526;28;20033;-70
2022/03/23 00:16:47;;;;;;;37.88;9.73;;;13.90;77.20;;;;;;5029172;28;20025;-72
2022/03/23 00:19:12;;;;;;;46.47;11.63;;;13.90;77.00;;;;;;5029166;28;20025;-74
2022/03/23 00:21:38;;;;;;;42.28;10.98;;;13.90;76.90;;;;;;5029486;28;20072;-71
2022/03/23 00:24:05;;;;;;;39.33;10.43;;;13.90;76.90;;;;;;5027822;28;20029;-71
2022/03/23 00:26:31;;;;;;;55.20;12.02;;;13.90;76.90;;;;;;5029321;28;20406;-71
2022/03/23 00:28:56;;;;;;;44.22;12.05;;;13.90;76.90;;;;;;5026771;28;20030;-71
2022/03/23 00:31:22;;;;;;;40.78;10.52;;;13.90;77.10;;;;;;5024291;28;20038;-71
2022/03/23 00:33:51;;;;;;;50.20;10.60;;;13.90;77.00;;;;;;5022792;28;20084;-74
2022/03/23 00:36:18;;;;;;;39.83;10.52;;;13.90;77.10;;;;;;5027518;28;20068;-71
2022/03/23 00:38:44;;;;;;;37.08;10.48;;;13.90;77.10;;;;;;5026611;28;20021;-71
2022/03/23 00:41:10;;;;;;;49.05;11.10;;;13.90;77.10;;;;;;5028832;28;20056;-73
2022/03/23 00:43:36;;;;;;;44.10;11.40;;;13.90;77.10;;;;;;5019452;28;20392;-71
2022/03/23 00:46:02;;;;;;;43.38;10.85;;;13.90;77.10;;;;;;5011449;28;20029;-72
2022/03/23 00:48:28;;;;;;;45.33;10.93;;;13.90;77.10;;;;;;5027857;28;20037;-71
2022/03/23 00:50:54;;;;;;;49.25;11.50;;;13.90;77.10;;;;;;5028929;28;20026;-72
2022/03/23 00:53:19;;;;;;;45.53;10.45;;;13.80;77.00;;;;;;5027799;28;20037;-71
2022/03/23 00:55:45;;;;;;;39.13;10.98;;;13.90;77.10;;;;;;5028431;28;20029;-73
2022/03/23 00:58:10;;;;;;;43.45;11.88;;;13.80;77.00;;;;;;5014683;28;20030;-70
2022/03/23 01:00:36;;;;;;;46.40;11.48;;;13.90;77.20;;;;;;5024812;28;20083;-71
2022/03/23 01:03:02;;;;;;;52.72;11.25;;;13.90;77.20;;;;;;5010522;28;20308;-71
2022/03/23 01:05:29;;;;;;;43.92;11.82;;;13.90;77.10;;;;;;5028150;28;20033;-72
2022/03/23 01:07:54;;;;;;;46.13;10.88;;;13.80;77.10;;;;;;5024324;28;20037;-70
2022/03/23 01:10:21;;;;;;;52.35;11.32;;;13.90;77.10;;;;;;5007254;28;20084;-71
2022/03/23 01:12:48;;;;;;;49.28;11.18;;;13.90;77.60;;;;;;5008372;28;20037;-71
2022/03/23 01:15:19;;;;;;;55.75;12.55;;;13.90;77.20;;;;;;5022316;28;20104;-71
2022/03/23 01:17:45;;;;;;;56.20;12.35;;;13.90;77.10;;;;;;5018366;28;20022;-71
2022/03/23 01:20:14;;;;;;;55.72;11.95;;;13.90;77.10;;;;;;5008783;28;20029;-72
2022/03/23 01:22:41;;;;;;;49.17;11.82;;;13.80;77.20;;;;;;5010620;28;20108;-71
2022/03/23 01:25:08;;;;;;;54.35;12.80;;;13.90;77.20;;;;;;5009541;28;20084;-72
2022/03/23 01:27:38;;;;;;;43.00;11.75;;;13.80;77.10;;;;;;5009849;28;20095;-71
2022/03/23 01:30:05;;;;;;;49.63;12.05;;;13.80;77.20;;;;;;5026293;28;20095;-71
2022/03/23 01:32:33;;;;;;;50.55;11.30;;;13.80;77.20;;;;;;5027674;28;20491;-71
2022/03/23 01:34:58;;;;;;;47.28;11.77;;;13.80;77.20;;;;;;5027284;28;20032;-71
2022/03/23 01:37:24;;;;;;;52.00;11.35;;;13.80;77.10;;;;;;5016715;28;20030;-73
2022/03/23 01:39:49;;;;;;;54.78;10.82;;;13.90;77.20;;;;;;5015061;28;20022;-72
2022/03/23 01:42:15;;;;;;;56.85;12.10;;;13.80;77.20;;;;;;5019743;28;20025;-74
2022/03/23 01:44:40;;;;;;;58.58;12.73;;;13.80;77.20;;;;;;5006803;28;20796;-72
2022/03/23 01:47:12;;;;;;;44.80;11.18;;;13.90;77.20;;;;;;5015687;28;20120;-71
2022/03/23 01:49:51;;;;;;;62.28;12.90;;;13.90;77.30;;;;;;5027376;28;20094;-72
2022/03/23 01:52:19;;;;;;;41.58;11.10;;;13.90;77.30;;;;;;5024133;28;20052;-72
2022/03/23 01:54:45;;;;;;;46.67;12.27;;;13.80;77.40;;;;;;5008428;28;20026;-72
2022/03/23 01:57:13;;;;;;;52.42;11.80;;;13.80;77.30;;;;;;5017842;28;20018;-71
2022/03/23 01:59:39;;;;;;;48.72;11.85;;;13.80;77.20;;;;;;5008131;28;20026;-71
2022/03/23 02:02:06;;;;;;;50.03;10.82;;;13.80;77.20;;;;;;5007610;28;20431;-70
2022/03/23 02:04:32;;;;;;;47.03;11.23;;;13.90;77.30;;;;;;5026616;28;20037;-71
2022/03/23 02:06:57;;;;;;;46.22;10.93;;;13.80;77.20;;;;;;5025592;28;20040;-70
2022/03/23 02:09:25;;;;;;;48.78;11.38;;;13.80;77.20;;;;;;5014970;28;20026;-72
2022/03/23 02:11:52;;;;;;;36.30;10.52;;;13.80;77.20;;;;;;5022030;28;20029;-70
2022/03/23 02:14:18;;;;;;;47.33;11.25;;;13.80;77.20;;;;;;5026395;28;20036;-71
2022/03/23 02:16:50;;;;;;;42.67;11.40;;;13.80;77.30;;;;;;5026726;28;20407;-71
2022/03/23 02:19:16;;;;;;;;;;;13.80;77.30;;;;;;5027251;28;20029;-72
2022/03/23 02:21:55;;;;;;;42.88;11.20;;;13.80;77.30;;;;;;5008095;28;19920;-72
2022/03/23 02:24:26;;;;;;;60.47;11.40;;;13.80;77.30;;;;;;5023505;28;20026;-71
2022/03/23 02:26:53;;;;;;;55.37;11.93;;;13.80;77.80;;;;;;5020700;28;20045;-72
2022/03/23 02:29:20;;;;;;;45.55;10.98;;;13.80;77.60;;;;;;5006336;28;20288;-71
2022/03/23 02:31:45;;;;;;;45.58;11.77;;;13.80;77.60;;;;;;5011856;28;20026;-69
2022/03/23 02:34:12;;;;;;;44.40;11.05;;;13.80;77.50;;;;;;5007158;28;20041;-71
2022/03/23 02:36:37;;;;;;;36.13;10.50;;;13.80;77.30;;;;;;5006835;28;20083;-69
2022/03/23 02:39:03;;;;;;;43.80;11.15;;;13.90;77.40;;;;;;5006145;28;20108;-72
2022/03/23 02:41:29;;;;;;;41.97;10.90;;;13.80;77.30;;;;;;5013861;28;20029;-71
2022/03/23 02:43:55;;;;;;;39.08;11.00;;;13.80;77.30;;;;;;5014515;28;20034;-72
2022/03/23 02:46:21;;;;;;;40.03;11.32;;;13.80;77.30;;;;;;5007866;28;20476;-71
2022/03/23 02:48:48;;;;;;;49.67;10.57;;;13.80;77.40;;;;;;5008190;28;20415;-71
2022/03/23 02:51:14;;;;;;;52.40;11.68;;;13.80;77.90;;;;;;5007429;28;20026;-70
2022/03/23 03:02:28;;;;;;;39.55;10.95;;;13.80;77.30;;;;;;5023762;28;20083;-73
2022/03/23 03:04:53;;;;;;;46.05;11.40;;;13.80;77.30;;;;;;5005157;28;20032;-72
2022/03/23 03:07:19;;;;;;;38.65;10.90;;;13.80;77.30;;;;;;5011527;28;20017;-72
2022/03/23 03:09:45;;;;;;;39.15;10.30;;;13.80;77.30;;;;;;5017647;28;20022;-70
2022/03/23 03:12:11;;;;;;;29.92;10.65;;;13.80;77.50;;;;;;5007253;28;20494;-72
2022/03/23 03:14:38;;;;;;;32.67;9.65;;;13.80;77.40;;;;;;5015038;28;20076;-70
2022/03/23 03:17:05;;;;;;;35.28;10.57;;;13.80;77.40;;;;;;5009463;28;20022;-72
2022/03/23 03:19:30;;;;;;;29.42;10.18;;;13.80;77.40;;;;;;5019361;28;20033;-71
2022/03/23 03:21:56;;;;;;;25.58;9.95;;;13.70;77.30;;;;;;5020169;28;20026;-75
2022/03/23 03:24:22;;;;;;;31.33;9.93;;;13.80;77.30;;;;;;5022476;28;20026;-71
2022/03/23 03:26:48;;;;;;;28.42;10.25;;;13.80;77.30;;;;;;5007693;28;20401;-71
2022/03/23 03:29:14;;;;;;;37.53;11.07;;;13.80;77.30;;;;;;5006545;28;20394;-71
2022/03/23 03:31:40;;;;;;;33.47;10.25;;;13.80;77.30;;;;;;5026354;28;20013;-71
2022/03/23 03:34:05;;;;;;;33.67;10.70;;;13.80;77.30;;;;;;5019480;28;20044;-70
2022/03/23 03:36:31;;;;;;;37.92;11.25;;;13.80;77.30;;;;;;5017304;28;20020;-71
2022/03/23 03:38:56;;;;;;;30.80;9.85;;;13.80;77.20;;;;;;5025812;28;20025;-72
2022/03/23 03:41:22;;;;;;;34.70;10.82;;;13.80;77.30;;;;;;5025004;28;20053;-71
2022/03/23 03:43:49;;;;;;;27.60;9.80;;;13.70;77.20;;;;;;5018010;28;20883;-71
2022/03/23 03:46:14;;;;;;;25.15;10.30;;;13.80;77.30;;;;;;5025667;28;20033;-71
2022/03/23 03:48:40;;;;;;;28.48;10.13;;;13.70;77.20;;;;;;5013015;28;20021;-70
2022/03/23 03:51:08;;;;;;;26.25;9.85;;;13.80;77.30;;;;;;5023044;28;20113;-71
2022/03/23 03:53:34;;;;;;;28.67;10.43;;;13.80;77.20;;;;;;5023322;28;20032;-70
2022/03/23 03:55:59;;;;;;;26.27;10.27;;;13.80;77.30;;;;;;5028598;28;20029;-70
2022/03/23 03:58:25;;;;;;;25.77;9.13;;;13.80;77.20;;;;;;5026752;28;20930;-71
2022/03/23 04:00:51;;;;;;;26.50;9.68;;;13.80;77.30;;;;;;5008739;28;20080;-71
2022/03/23 04:03:16;;;;;;;26.95;10.40;;;13.80;77.80;;;;;;5013568;28;20033;-74
2022/03/23 04:05:42;;;;;;;26.88;10.32;;;13.70;77.20;;;;;;5024695;28;20113;-71
2022/03/23 04:08:08;;;;;;;25.50;10.52;;;13.80;77.20;;;;;;5028830;28;20049;-75
2022/03/23 04:10:34;;;;;;;24.25;10.63;;;13.70;77.20;;;;;;5028503;28;20145;-72
2022/03/23 04:13:00;;;;;;;22.73;10.18;;;13.80;77.80;;;;;;5013805;28;20438;-70
2022/03/23 04:15:26;;;;;;;27.67;9.80;;;13.80;77.30;;;;;;5012858;28;20030;-72
2022/03/23 04:17:53;;;;;;;26.23;9.88;;;13.80;77.30;;;;;;5007998;28;20033;-74
2022/03/23 04:20:18;;;;;;;28.20;11.02;;;13.80;77.50;;;;;;5009799;28;20057;-71
2022/03/23 04:22:44;;;;;;;22.55;10.07;;;13.70;77.20;;;;;;5012313;28;20053;-71
2022/03/23 04:25:12;;;;;;;24.88;9.75;;;13.80;77.20;;;;;;5025447;28;20526;-72
2022/03/23 04:27:46;;;;;;;22.95;10.15;;;13.70;77.90;;;;;;5023048;28;20278;-70
2022/03/23 04:30:12;;;;;;;19.38;9.10;;;13.80;77.50;;;;;;5016713;28;20037;-71
2022/03/23 04:32:38;;;;;;;24.02;10.15;;;13.70;77.30;;;;;;5014059;28;20041;-71
2022/03/23 04:35:05;;;;;;;19.58;9.13;;;13.80;77.30;;;;;;5009334;28;20056;-71
2022/03/23 04:37:31;;;;;;;26.27;9.73;;;13.70;77.20;;;;;;5026948;28;20035;-74
2022/03/23 04:39:57;;;;;;;24.73;9.77;;;13.70;77.20;;;;;;5027345;28;20029;-70
2022/03/23 04:42:22;;;;;;;19.27;9.73;;;13.80;77.30;;;;;;5020772;28;20076;-71
2022/03/23 04:44:47;;;;;;;20.88;9.10;;;13.80;77.20;;;;;;5010466;28;20558;-72
2022/03/23 04:47:13;;;;;;;24.77;9.93;;;13.80;77.20;;;;;;5012620;28;20034;-75
2022/03/23 04:49:39;;;;;;;18.77;9.30;;;13.70;77.20;;;;;;5026863;28;20030;-72
2022/03/23 04:52:04;;;;;;;28.63;9.85;;;13.80;77.30;;;;;;5027911;28;20033;-71
2022/03/23 04:54:30;;;;;;;19.80;9.52;;;13.70;77.60;;;;;;5026437;28;20033;-71
2022/03/23 04:56:55;;;;;;;20.38;10.07;;;13.70;77.30;;;;;;5022249;28;20806;-72
2022/03/23 04:59:21;;;;;;;22.60;9.80;;;13.70;77.30;;;;;;5008679;28;20030;-70
2022/03/23 05:01:47;;;;;;;21.48;9.07;;;13.70;77.20;;;;;;5007143;28;20084;-70
2022/03/23 05:04:13;;;;;;;19.70;9.63;;;13.80;77.30;;;;;;5007578;28;20030;-70
2022/03/23 05:06:38;;;;;;;20.92;9.55;;;13.70;77.20;;;;;;5008443;28;20022;-70
2022/03/23 05:09:04;;;;;;;19.83;9.82;;;13.80;77.20;;;;;;5008588;28;20093;-74
2022/03/23 05:11:29;;;;;;;22.58;9.80;;;13.80;77.30;;;;;;5008843;28;20057;-71
2022/03/23 05:13:55;;;;;;;17.60;9.38;;;13.70;77.20;;;;;;5008602;28;20026;-78
2022/03/23 05:16:20;;;;;;;21.08;10.25;;;13.80;77.30;;;;;;5008556;28;20021;-71
2022/03/23 05:18:46;;;;;;;16.65;8.30;;;13.80;77.30;;;;;;5007038;28;20030;-71
2022/03/23 05:21:11;;;;;;;20.48;9.70;;;13.70;77.20;;;;;;5023839;28;20036;-72
2022/03/23 05:23:37;;;;;;;19.15;9.02;;;13.70;77.30;;;;;;5025399;28;20052;-72
2022/03/23 05:26:02;;;;;;;16.20;8.85;;;13.70;77.20;;;;;;5028473;28;20104;-72
2022/03/23 05:28:28;;;;;;;20.52;9.68;;;13.70;77.20;;;;;;5024273;28;20026;-71
2022/03/23 05:30:53;;;;;;;18.73;9.32;;;13.70;77.20;;;;;;5021346;28;20025;-75
2022/03/23 05:33:19;;;;;;;18.80;9.73;;;13.70;77.20;;;;;;5026984;28;20419;-72
2022/03/23 05:35:44;;;;;;;19.00;9.88;;;13.70;77.20;;;;;;5028077;28;20026;-75
2022/03/23 05:38:10;;;;;;;18.45;9.90;;;13.70;77.20;;;;;;5009289;28;20022;-71
2022/03/23 05:40:35;;;;;;;18.08;9.07;;;13.70;77.10;;;;;;5008087;28;20037;-71
2022/03/23 05:43:01;;;;;;;19.05;9.02;;;13.70;77.20;;;;;;5007986;28;20057;-70
2022/03/23 05:45:27;;;;;;;17.13;9.30;;;13.80;77.20;;;;;;5010953;28;20021;-71
2022/03/23 05:47:53;;;;;;;17.27;9.15;;;13.60;77.10;;;;;;5025856;28;20037;-70
2022/03/23 05:50:20;;;;;;;20.88;9.70;;;13.80;77.10;;;;;;5028120;28;20025;-71
2022/03/23 05:52:45;;;;;;;17.42;9.45;;;13.80;77.10;;;;;;5027432;28;20078;-71
2022/03/23 05:55:11;;;;;;;17.38;9.32;;;13.80;77.10;;;;;;5027582;28;20025;-71
2022/03/23 05:57:37;;;;;;;17.42;9.80;;;13.70;77.00;;;;;;5025730;28;20116;-70
2022/03/23 06:00:06;;;;;;;16.20;9.13;;;13.80;77.10;;;;;;5019775;28;20433;-71
2022/03/23 06:02:31;;;;;;;16.42;9.23;;;13.80;77.10;;;;;;5005282;28;20034;-71
2022/03/23 06:04:57;;;;;;;18.60;9.95;;;13.80;77.00;;;;;;5006001;28;20030;-71
2022/03/23 06:07:22;;;;;;;19.42;9.18;;;13.70;76.90;;;;;;5006379;28;20030;-74
2022/03/23 06:09:48;;;;;;;18.73;9.00;;;13.80;77.10;;;;;;5006180;28;20022;-72
2022/03/23 06:12:14;;;;;;;18.05;9.05;;;13.80;77.00;;;;;;5007577;28;20475;-73
2022/03/23 06:14:42;;;;;;;15.65;8.85;;;13.80;77.10;;;;;;5008666;28;20454;-73
2022/03/23 06:17:08;;;;;;;12.82;8.32;;;13.80;77.10;;;;;;5007955;28;20029;-73
2022/03/23 06:19:34;;;;;;;19.80;9.90;;;13.80;76.90;;;;;;5008997;28;20396;-71
2022/03/23 06:21:59;;;;;;;13.80;8.95;;;13.90;77.00;;;;;;5008251;28;20488;-73
2022/03/23 06:24:25;;;;;;;15.32;8.77;;;13.80;76.90;;;;;;5006815;28;20024;-76
2022/03/23 06:26:50;;;;;;;16.38;8.98;;;13.90;76.90;;;;;;5007956;28;20403;-71
2022/03/23 06:29:16;;;;;;;16.77;9.20;;;13.90;76.80;;;;;;5008220;28;20030;-72
2022/03/23 06:31:41;;;;;;;17.23;10.20;;;13.90;76.90;;;;;;5008276;28;20521;-70
2022/03/23 06:34:07;;;;;;;19.25;9.90;;;13.90;76.80;;;;;;5008085;28;20026;-72
2022/03/23 06:36:34;;;;;;;13.95;9.20;;;13.90;76.60;;;;;;5008062;28;20022;-73
2022/03/23 06:38:59;;;;;;;18.83;10.07;;;14.00;76.50;;;;;;5007020;28;20109;-73
2022/03/23 06:41:25;;;;;;;16.90;9.68;;;14.00;76.30;;;;;;5007890;28;20116;-71
2022/03/23 06:43:50;;;;;;;16.27;9.48;;;14.00;76.30;;;;;;5008399;28;20018;-72
2022/03/23 06:46:16;;;;;;;15.45;9.57;;;14.00;76.30;;;;;;5006708;28;20033;-74
2022/03/23 06:48:41;;;;;;;21.13;10.45;;;14.00;76.10;;;;;;5007137;28;20052;-72
2022/03/23 06:51:07;;;;;;;15.95;9.70;;;14.10;76.00;;;;;;5007559;28;20080;-72
2022/03/23 06:53:32;;;;;;;16.65;9.93;;;14.10;75.90;;;;;;5007394;28;20036;-73
2022/03/23 06:55:58;;;;;;;16.55;10.30;;;14.10;75.70;;;;;;5007588;28;20036;-72
2022/03/23 06:58:23;;;;;;;16.45;10.13;;;14.10;75.40;;;;;;5007131;28;20029;-72
2022/03/23 07:00:49;;;;;;;19.02;11.48;;;14.20;75.40;;;;;;5007786;28;20606;-73
2022/03/23 07:03:14;;;;;;;15.85;10.65;;;14.20;75.30;;;;;;5007516;28;20068;-72
2022/03/23 07:05:40;;;;;;;17.02;10.82;;;14.20;75.20;;;;;;5007667;28;20049;-72
2022/03/23 07:10:50;;;;;;;16.05;10.88;;;14.20;75.00;;;;;;5007859;28;20037;-73
2022/03/23 07:13:15;;;;;;;15.48;10.43;;;14.30;75.00;;;;;;5007725;28;20030;-73
2022/03/23 07:15:42;;;;;;;17.80;10.48;;;14.30;75.00;;;;;;5007768;28;20026;-73
2022/03/23 07:18:09;;;;;;;15.80;10.05;;;14.30;74.70;;;;;;5005882;28;20030;-72
2022/03/23 07:20:35;;;;;;;17.63;10.73;;;14.40;74.70;;;;;;5007708;28;20018;-72
2022/03/23 07:23:00;;;;;;;16.85;10.38;;;14.30;74.70;;;;;;5007583;28;20041;-74
2022/03/23 07:25:26;;;;;;;17.55;10.48;;;14.40;74.60;;;;;;5011237;28;20390;-72
2022/03/23 07:27:51;;;;;;;17.08;11.05;;;14.40;74.60;;;;;;5011187;28;20030;-72
2022/03/23 07:30:17;;;;;;;16.63;10.43;;;14.40;74.50;;;;;;5011662;28;20025;-72
2022/03/23 07:32:42;;;;;;;14.55;10.45;;;14.40;74.50;;;;;;5011694;28;20108;-72
2022/03/23 07:35:08;;;;;;;18.40;11.23;;;14.40;74.40;;;;;;5011444;28;20565;-72
2022/03/23 07:37:34;;;;;;;15.43;10.48;;;14.50;74.40;;;;;;5011138;28;20053;-73
2022/03/23 07:40:00;;;;;;;17.38;10.65;;;14.40;74.30;;;;;;5011322;28;20029;-71
2022/03/23 07:42:25;;;;;;;15.07;10.57;;;14.50;74.30;;;;;;5012042;28;20018;-74
2022/03/23 07:44:51;;;;;;;15.30;10.20;;;14.50;74.20;;;;;;5011435;28;20040;-71
2022/03/23 07:47:16;;;;;;;20.17;10.82;;;14.50;74.20;;;;;;5009861;28;20022;-72
2022/03/23 07:49:42;;;;;;;14.98;10.63;;;14.60;74.20;;;;;;5010123;28;20352;-72
2022/03/23 07:52:08;;;;;;;15.73;10.30;;;14.60;74.10;;;;;;5010007;28;20032;-72
2022/03/23 07:54:34;;;;;;;16.17;10.95;;;14.60;74.00;;;;;;5010960;28;20087;-72
2022/03/23 07:57:00;;;;;;;18.38;10.55;;;14.60;74.00;;;;;;5011004;28;20071;-72
2022/03/23 07:59:26;;;;;;;16.92;10.88;;;14.60;74.00;;;;;;5010688;28;20029;-72
2022/03/23 08:01:51;;;;;;;14.13;9.93;;;14.60;73.90;;;;;;5011008;28;20379;-72
2022/03/23 08:04:17;;;;;;;14.18;9.88;;;14.60;73.90;;;;;;5009745;28;20061;-74
2022/03/23 08:06:43;;;;;;;14.90;10.40;;;14.70;73.90;;;;;;5010314;28;20422;-72
2022/03/23 08:09:09;;;;;;;14.77;9.75;;;14.70;73.90;;;;;;5011035;28;20018;-72
2022/03/23 08:11:35;;;;;;;16.77;9.85;;;14.80;74.00;;;;;;5009416;28;20025;-72
2022/03/23 08:14:01;;;;;;;15.00;10.20;;;14.70;73.90;;;;;;5010766;28;20037;-74
2022/03/23 08:16:26;;;;;;;13.48;9.88;;;14.80;73.90;;;;;;5010797;28;20025;-72
2022/03/23 08:18:52;;;;;;;16.02;10.02;;;14.70;73.80;;;;;;5010437;28;20029;-72
2022/03/23 08:21:19;;;;;;;14.15;10.27;;;14.80;73.90;;;;;;5009346;28;20025;-72
2022/03/23 08:23:45;;;;;;;14.63;9.95;;;14.80;73.90;;;;;;5009539;28;20025;-72
2022/03/23 08:26:13;;;;;;;15.32;9.63;;;14.80;73.80;;;;;;5009449;28;20112;-72
2022/03/23 08:28:40;;;;;;;16.38;9.77;;;14.80;73.70;;;;;;5009874;28;20022;-71
2022/03/23 08:31:06;;;;;;;14.65;9.63;;;14.80;73.70;;;;;;5010808;28;20022;-73
2022/03/23 08:33:34;;;;;;;15.82;10.55;;;14.80;73.70;;;;;;5009148;28;20383;-71
2022/03/23 08:36:00;;;;;;;14.80;10.63;;;14.90;73.70;;;;;;5007877;28;20390;-72
2022/03/23 08:38:26;;;;;;;15.60;10.25;;;14.90;73.70;;;;;;5009953;28;20645;-73
2022/03/23 08:40:51;;;;;;;15.25;9.90;;;14.90;73.60;;;;;;5009345;28;20084;-73
2022/03/23 08:43:17;;;;;;;15.18;10.00;;;14.90;73.60;;;;;;5010415;28;20014;-73
2022/03/23 08:45:43;;;;;;;14.65;9.57;;;14.90;73.60;;;;;;5008993;28;20076;-73
2022/03/23 08:48:09;;;;;;;14.35;9.88;;;14.90;73.60;;;;;;5008534;28;20026;-71
2022/03/23 08:50:35;;;;;;;15.32;10.15;;;15.00;73.70;;;;;;5010495;28;20018;-73
2022/03/23 08:53:02;;;;;;;18.75;10.50;;;15.00;73.60;;;;;;5010125;28;20030;-71
2022/03/23 08:55:28;;;;;;;13.68;9.30;;;15.00;73.60;;;;;;5010177;28;20018;-75
2022/03/23 08:57:54;;;;;;;12.23;9.48;;;15.00;73.50;;;;;;5008411;28;20028;-73
2022/03/23 09:00:20;;;;;;;13.88;9.77;;;15.00;73.60;;;;;;5008853;28;20372;-72
2022/03/23 09:02:45;;;;;;;12.88;9.43;;;15.00;73.50;;;;;;5009900;28;20018;-72
2022/03/23 09:05:14;;;;;;;14.15;9.85;;;15.00;73.60;;;;;;5008428;28;20388;-72
2022/03/23 09:07:40;;;;;;;14.23;10.00;;;15.10;73.60;;;;;;5008052;28;20475;-72
2022/03/23 09:10:06;;;;;;;13.07;9.48;;;15.10;73.60;;;;;;5008496;28;20113;-74
2022/03/23 09:12:32;;;;;;;13.25;9.45;;;15.00;73.50;;;;;;5009803;28;20498;-73
2022/03/23 09:14:57;;;;;;;13.93;9.38;;;15.10;73.50;;;;;;5008229;28;20117;-71
2022/03/23 09:17:23;;;;;;;14.45;9.73;;;15.10;73.50;;;;;;5008351;28;20030;-72
2022/03/23 09:19:48;;;;;;;12.73;9.30;;;15.10;73.50;;;;;;5009684;28;20022;-74
2022/03/23 09:22:14;;;;;;;14.75;9.88;;;15.10;73.40;;;;;;5009315;28;20026;-72
2022/03/23 09:24:39;;;;;;;13.32;8.85;;;15.10;73.40;;;;;;5009588;28;20037;-74
2022/03/23 09:27:05;;;;;;;12.85;9.43;;;15.10;73.40;;;;;;5007791;28;20026;-72
2022/03/23 09:29:31;;;;;;;12.77;9.18;;;15.10;73.40;;;;;;5009602;28;20356;-73
2022/03/23 09:31:57;;;;;;;12.95;9.43;;;15.10;73.20;;;;;;5008188;28;20029;-72
2022/03/23 09:34:23;;;;;;;14.13;8.88;;;15.10;73.20;;;;;;5009663;28;20482;-72
2022/03/23 09:39:32;;;;;;;12.27;8.80;;;15.20;73.20;;;;;;5009253;28;20028;-71
2022/03/23 09:41:58;;;;;;;14.52;9.82;;;15.20;73.10;;;;;;5009240;28;20022;-73
2022/03/23 09:44:28;;;;;;;11.95;8.82;;;15.20;73.10;;;;;;5007279;28;20498;-73
2022/03/23 09:46:55;;;;;;;12.48;9.00;;;15.20;73.60;;;;;;5008841;28;20028;-73
2022/03/23 09:49:23;;;;;;;12.52;9.15;;;15.30;73.50;;;;;;5008985;28;20026;-71
2022/03/23 09:51:52;;;;;;;11.48;8.82;;;15.30;73.00;;;;;;5009166;28;20105;-72
2022/03/23 09:54:17;;;;;;;12.05;8.75;;;15.30;73.00;;;;;;5009134;28;20022;-72
2022/03/23 09:56:43;;;;;;;10.52;8.45;;;15.30;73.00;;;;;;5008578;28;20029;-74
2022/03/23 09:59:08;;;;;;;13.48;9.77;;;15.30;72.90;;;;;;5008855;28;20034;-75
2022/03/23 10:01:46;;;;;;;11.82;8.93;;;15.30;72.90;;;;;;5008850;28;20387;-74
2022/03/23 10:04:17;;;;;;;11.57;9.27;;;15.30;72.90;;;;;;5007356;28;20026;-72
2022/03/23 10:07:20;;;;;;;12.68;9.02;;;15.30;72.90;;;;;;5007376;28;20383;-72
2022/03/23 10:10:22;;;;;;;13.00;8.93;;;15.30;72.90;;;;;;5008367;28;20104;-74
2022/03/23 10:13:42;;;;;;;12.10;8.73;;;15.30;73.00;;;;;;5008530;28;20026;-72
2022/03/23 10:16:52;;;;;;;12.35;9.20;;;15.30;72.90;;;;;;5008296;28;20030;-72
2022/03/23 10:19:18;;;;;;;10.27;7.95;;;15.30;73.00;;;;;;5008477;28;20084;-73
2022/03/23 10:21:43;;;;;;;12.10;8.95;;;15.30;72.90;;;;;;5008208;28;20022;-73
2022/03/23 10:24:09;;;;;;;11.50;8.30;;;15.30;72.90;;;;;;5007125;28;20076;-73
2022/03/23 10:26:36;;;;;;;13.00;9.43;;;15.40;73.00;;;;;;5008206;28;20079;-72
2022/03/23 10:29:03;;;;;;;10.52;8.00;;;15.40;73.00;;;;;;5007049;28;20026;-73
2022/03/23 10:31:29;;;;;;;11.00;8.43;;;15.40;73.00;;;;;;5008568;28;20109;-72
2022/03/23 10:33:59;;;;;;;11.73;9.32;;;15.40;73.00;;;;;;5007054;28;20046;-72
2022/03/23 10:36:28;;;;;;;11.38;8.88;;;15.40;73.00;;;;;;5007008;28;20076;-72
2022/03/23 10:39:02;;;;;;;11.60;8.60;;;15.40;73.00;;;;;;5007932;28;20010;-73
2022/03/23 10:41:29;;;;;;;12.18;8.35;;;15.40;73.00;;;;;;5008185;28;20064;-71
2022/03/23 10:43:55;;;;;;;12.27;8.70;;;15.40;73.00;;;;;;5007198;28;20026;-72
2022/03/23 10:46:20;;;;;;;11.95;8.75;;;15.40;73.10;;;;;;5008143;28;20029;-71
2022/03/23 10:48:51;;;;;;;11.05;8.82;;;15.40;73.10;;;;;;5006520;28;20133;-73
2022/03/23 10:51:29;;;;;;;10.95;8.57;;;15.40;73.10;;;;;;5006700;28;20215;-72
2022/03/23 10:53:55;;;;;;;10.65;8.20;;;15.40;73.10;;;;;;5006603;28;20026;-71
2022/03/23 10:56:29;;;;;;;11.02;8.30;;;15.50;73.10;;;;;;5006586;28;20407;-72
2022/03/23 10:59:17;;;;;;;11.70;8.75;;;15.40;73.00;;;;;;5006732;28;20288;-73
2022/03/23 11:01:59;;;;;;;11.40;8.60;;;15.40;72.90;;;;;;5007639;28;20037;-74
2022/03/23 11:04:29;;;;;;;10.43;8.10;;;15.40;72.90;;;;;;5006298;28;20390;-71
2022/03/23 11:07:02;;;;;;;11.88;8.65;;;15.50;72.90;;;;;;5007202;28;20022;-75
2022/03/23 11:18:17;;;;;;;11.85;8.20;;;15.50;72.80;;;;;;5007178;28;20029;-71
2022/03/23 11:20:56;;;;;;;10.63;8.18;;;15.60;72.90;;;;;;5007706;28;20033;-75
2022/03/23 11:23:37;;;;;;;11.02;8.18;;;15.50;72.80;;;;;;5007744;28;20018;-72
2022/03/23 11:26:08;;;;;;;10.52;7.90;;;15.50;73.20;;;;;;5007643;28;20030;-72
2022/03/23 11:28:39;;;;;;;10.47;7.77;;;15.60;72.80;;;;;;5007177;28;20034;-72
2022/03/23 11:31:08;;;;;;;12.30;8.50;;;15.60;72.80;;;;;;5006542;28;20304;-74
2022/03/23 11:33:34;;;;;;;10.30;7.90;;;15.50;72.70;;;;;;5006346;28;20022;-72
2022/03/23 11:36:05;;;;;;;11.05;7.78;;;15.60;72.70;;;;;;5007380;28;20109;-71
2022/03/23 11:38:33;;;;;;;11.57;8.40;;;15.60;72.70;;;;;;5007149;28;20080;-73
2022/03/23 11:40:59;;;;;;;9.95;7.75;;;15.60;72.80;;;;;;5006274;28;20034;-71
2022/03/23 11:43:27;;;;;;;13.13;8.52;;;15.60;72.80;;;;;;5006315;28;20080;-72
2022/03/23 11:45:54;;;;;;;9.88;7.40;;;15.50;72.80;;;;;;5007242;28;20030;-71
2022/03/23 11:48:52;;;;;;;11.82;8.07;;;15.50;72.80;;;;;;5006887;28;20097;-72
2022/03/23 11:51:40;;;;;;;11.77;8.52;;;15.50;72.80;;;;;;5007355;28;20558;-73
2022/03/23 11:54:09;;;;;;;9.98;8.02;;;15.50;72.80;;;;;;5005862;28;20021;-71
2022/03/23 11:56:55;;;;;;;11.48;7.68;;;15.60;72.90;;;;;;5007203;28;20068;-72
2022/03/23 11:59:26;;;;;;;10.20;7.72;;;15.60;72.90;;;;;;5007068;28;20212;-72
2022/03/23 12:01:54;;;;;;;10.80;7.88;;;15.50;72.90;;;;;;5007162;28;20034;-74
2022/03/23 12:04:24;;;;;;;11.73;8.55;;;15.50;73.00;;;;;;5005452;28;20025;-72
2022/03/23 12:07:06;;;;;;;10.65;7.38;;;15.50;72.90;;;;;;5007096;28;20022;-72
2022/03/23 12:09:42;;;;;;;11.52;8.07;;;15.60;73.00;;;;;;5007228;28;20025;-72
2022/03/23 12:12:28;;;;;;;10.45;7.72;;;15.60;73.60;;;;;;5009648;28;20534;-75
2022/03/23 12:15:21;;;;;;;11.35;8.05;;;15.60;73.10;;;;;;5009423;28;20022;-71
2022/03/23 12:17:58;;;;;;;11.07;7.70;;;15.60;73.10;;;;;;5010193;28;20019;-72
2022/03/23 12:20:37;;;;;;;9.68;7.47;;;15.50;73.00;;;;;;5010654;28;20241;-75
2022/03/23 12:23:27;;;;;;;10.40;7.72;;;15.50;73.00;;;;;;5009507;28;20032;-72
2022/03/23 12:25:53;;;;;;;11.63;7.50;;;15.50;73.10;;;;;;5010486;28;20033;-72
2022/03/23 12:28:43;;;;;;;10.65;7.70;;;15.60;73.10;;;;;;5010344;28;20026;-72
2022/03/23 12:31:14;;;;;;;13.05;7.60;;;15.50;73.10;;;;;;5009070;28;20033;-72
2022/03/23 12:34:05;;;;;;;10.98;7.60;;;15.50;73.10;;;;;;5009397;28;20022;-72
2022/03/23 12:39:25;;;;;;;10.18;8.20;;;15.50;73.10;;;;;;5010670;28;20542;-72
2022/03/23 12:41:50;;;;;;;11.02;7.90;;;15.60;73.20;;;;;;5010264;28;20113;-72
2022/03/23 12:44:16;;;;;;;10.85;8.00;;;15.50;73.20;;;;;;5010232;28;20644;-71
2022/03/23 12:46:45;;;;;;;10.60;7.90;;;15.50;73.10;;;;;;5008807;28;20018;-71
2022/03/23 12:57:50;;;;;;;9.63;7.45;;;15.50;73.30;;;;;;5009726;28;20032;-73
2022/03/23 13:00:37;;;;;;;;;;;15.50;73.40;;;;;;5010475;28;20038;-72
2022/03/23 13:03:06;;;;;;;9.15;7.15;;;15.50;73.40;;;;;;5010004;28;20004;-72
2022/03/23 13:05:54;;;;;;;9.80;7.50;;;15.40;73.40;;;;;;5008323;28;20113;-72
2022/03/23 13:08:35;;;;;;;10.18;7.60;;;15.40;73.40;;;;;;5002547;28;20046;-71
2022/03/23 13:11:03;;;;;;;10.45;7.55;;;15.40;73.50;;;;;;5009926;28;20033;-72
2022/03/23 13:13:32;;;;;;;10.65;7.65;;;15.40;73.50;;;;;;5007698;28;20473;-71